createdAt,value
2022-10-02T00:01:37.286Z,18.60
2022-10-02T00:04:04.395Z,18.55
2022-10-02T00:06:39.287Z,18.47
2022-10-02T00:09:05.650Z,18.57
2022-10-02T00:11:46.198Z,18.54
2022-10-02T00:14:16.078Z,18.53
2022-10-02T00:16:47.013Z,18.48
2022-10-02T00:19:16.927Z,18.42
2022-10-02T00:22:23.446Z,18.38
2022-10-02T00:25:22.067Z,18.37
2022-10-02T00:28:11.666Z,18.36
2022-10-02T00:31:08.261Z,18.40
2022-10-02T00:33:58.910Z,18.29
2022-10-02T00:36:25.438Z,18.27
2022-10-02T00:39:11.191Z,18.27
2022-10-02T00:42:16.673Z,18.37
2022-10-02T00:45:15.378Z,18.37
2022-10-02T00:47:56.827Z,18.33
2022-10-02T00:50:33.690Z,18.27
2022-10-02T00:53:23.763Z,18.21
2022-10-02T00:55:53.001Z,18.27
2022-10-02T00:58:31.602Z,18.23
2022-10-02T01:01:17.869Z,18.21
2022-10-02T01:03:53.069Z,18.17
2022-10-02T01:06:20.222Z,18.11
2022-10-02T01:08:46.713Z,18.10
2022-10-02T01:11:13.513Z,18.10
2022-10-02T01:13:40.033Z,18.03
2022-10-02T01:16:11.026Z,18.00
2022-10-02T01:18:37.741Z,17.83
2022-10-02T01:21:09.071Z,17.92
2022-10-02T01:24:03.392Z,17.92
2022-10-02T01:26:29.900Z,17.99
2022-10-02T01:28:56.461Z,17.90
2022-10-02T01:31:24.818Z,17.88
2022-10-02T01:33:51.312Z,17.88
2022-10-02T01:36:18.205Z,17.83
2022-10-02T01:38:46.519Z,17.85
2022-10-02T01:41:13.250Z,17.81
2022-10-02T01:43:49.994Z,17.81
2022-10-02T01:46:36.147Z,17.84
2022-10-02T01:49:27.518Z,17.79
2022-10-02T01:52:06.221Z,17.74
2022-10-02T01:55:02.920Z,17.71
2022-10-02T01:57:40.965Z,17.67
2022-10-02T02:00:14.113Z,17.71
2022-10-02T02:03:11.587Z,17.71
2022-10-02T02:05:48.056Z,17.68
2022-10-02T02:08:31.919Z,17.62
2022-10-02T02:11:13.929Z,17.61
2022-10-02T02:13:59.590Z,17.61
2022-10-02T02:16:52.632Z,17.64
2022-10-02T02:19:25.618Z,17.52
2022-10-02T02:22:01.843Z,17.55
2022-10-02T02:24:32.658Z,17.48
2022-10-02T02:27:00.849Z,17.43
2022-10-02T02:29:30.326Z,17.40
2022-10-02T02:31:58.208Z,17.37
2022-10-02T02:34:34.729Z,17.35
2022-10-02T02:37:06.076Z,17.32
2022-10-02T02:39:46.048Z,17.37
2022-10-02T02:42:17.598Z,17.33
2022-10-02T02:44:51.890Z,17.35
2022-10-02T02:47:22.507Z,17.35
2022-10-02T02:49:59.247Z,17.35
2022-10-02T02:52:44.853Z,17.30
2022-10-02T02:55:19.443Z,17.22
2022-10-02T02:58:05.559Z,17.24
2022-10-02T03:00:32.060Z,17.21
2022-10-02T03:02:58.623Z,17.19
2022-10-02T03:05:25.718Z,17.24
2022-10-02T03:08:00.576Z,17.23
2022-10-02T03:10:52.166Z,17.20
2022-10-02T03:13:24.500Z,17.09
2022-10-02T03:16:11.678Z,16.99
2022-10-02T03:18:48.501Z,17.03
2022-10-02T03:21:27.220Z,17.02
2022-10-02T03:24:05.441Z,17.04
2022-10-02T03:26:38.268Z,17.07
2022-10-02T03:29:08.874Z,17.06
2022-10-02T03:31:36.260Z,17.02
2022-10-02T03:34:03.447Z,17.07
2022-10-02T03:36:30.965Z,17.03
2022-10-02T03:39:23.697Z,17.05
2022-10-02T03:41:47.054Z,16.94
2022-10-02T03:44:13.562Z,16.84
2022-10-02T03:46:40.419Z,16.92
2022-10-02T03:49:07.226Z,16.93
2022-10-02T03:51:33.714Z,16.87
2022-10-02T03:54:00.187Z,16.94
2022-10-02T03:56:44.294Z,16.85
2022-10-02T03:59:14.948Z,16.81
2022-10-02T04:01:49.281Z,16.80
2022-10-02T04:04:24.646Z,16.79
2022-10-02T04:06:54.397Z,16.83
2022-10-02T04:09:27.524Z,16.77
2022-10-02T04:11:53.946Z,16.79
2022-10-02T04:14:39.218Z,16.80
2022-10-02T04:17:11.481Z,16.77
2022-10-02T04:19:48.935Z,16.76
2022-10-02T04:22:34.769Z,16.68
2022-10-02T04:25:12.574Z,16.70
2022-10-02T04:27:44.561Z,16.68
2022-10-02T04:30:14.986Z,16.69
2022-10-02T04:32:41.621Z,16.57
2022-10-02T04:35:14.358Z,16.60
2022-10-02T04:38:16.549Z,16.62
2022-10-02T04:41:03.782Z,16.63
2022-10-02T04:43:42.539Z,16.66
2022-10-02T04:46:24.051Z,16.59
2022-10-02T04:48:53.490Z,16.60
2022-10-02T04:51:59.034Z,16.53
2022-10-02T04:54:41.831Z,16.57
2022-10-02T04:57:23.996Z,16.58
2022-10-02T05:00:06.594Z,16.60
2022-10-02T05:02:48.046Z,16.61
2022-10-02T05:05:25.603Z,16.63
2022-10-02T05:08:04.260Z,16.53
2022-10-02T05:10:43.842Z,16.55
2022-10-02T05:13:22.449Z,16.47
2022-10-02T05:15:58.034Z,16.45
2022-10-02T05:18:52.731Z,16.46
2022-10-02T05:21:25.390Z,16.46
2022-10-02T05:24:17.150Z,16.51
2022-10-02T05:26:50.369Z,16.53
2022-10-02T05:29:38.206Z,16.51
2022-10-02T05:32:08.126Z,16.48
2022-10-02T05:34:38.106Z,16.47
2022-10-02T05:37:26.202Z,16.43
2022-10-02T05:40:25.188Z,16.48
2022-10-02T05:42:57.816Z,16.39
2022-10-02T05:45:24.481Z,16.45
2022-10-02T05:47:53.444Z,16.38
2022-10-02T05:50:30.824Z,16.43
2022-10-02T05:53:24.784Z,16.43
2022-10-02T05:56:15.011Z,16.46
2022-10-02T05:59:07.990Z,16.47
2022-10-02T06:01:38.392Z,16.49
2022-10-02T06:04:13.433Z,16.46
2022-10-02T06:06:46.712Z,16.49
2022-10-02T06:09:19.961Z,16.51
2022-10-02T06:12:20.593Z,16.48
2022-10-02T06:14:51.038Z,16.62
2022-10-02T06:18:12.997Z,16.66
2022-10-02T06:20:47.214Z,16.70
2022-10-02T06:23:20.996Z,16.65
2022-10-02T06:25:51.386Z,16.70
2022-10-02T06:28:23.818Z,16.66
2022-10-02T06:30:55.693Z,16.76
2022-10-02T06:33:28.140Z,16.80
2022-10-02T06:35:57.568Z,16.88
2022-10-02T06:39:09.533Z,16.91
2022-10-02T06:41:38.748Z,16.93
2022-10-02T06:44:31.290Z,16.93
2022-10-02T06:47:45.946Z,17.02
2022-10-02T06:50:43.898Z,17.05
2022-10-02T06:53:22.886Z,17.07
2022-10-02T06:55:49.413Z,16.93
2022-10-02T06:58:34.824Z,17.11
2022-10-02T07:01:07.060Z,17.23
2022-10-02T07:03:55.681Z,17.18
2022-10-02T07:06:31.264Z,17.21
2022-10-02T07:09:23.998Z,17.27
2022-10-02T07:11:55.187Z,17.34
2022-10-02T07:14:35.183Z,17.37
2022-10-02T07:17:30.665Z,17.36
2022-10-02T07:20:34.680Z,17.40
2022-10-02T07:23:07.776Z,17.44
2022-10-02T07:25:46.214Z,17.49
2022-10-02T07:28:31.058Z,17.51
2022-10-02T07:31:18.999Z,17.48
2022-10-02T07:34:13.380Z,17.53
2022-10-02T07:36:39.938Z,17.58
2022-10-02T07:39:15.967Z,17.62
2022-10-02T07:41:45.647Z,17.70
2022-10-02T07:44:18.215Z,17.67
2022-10-02T07:47:09.434Z,17.75
2022-10-02T07:49:54.188Z,17.79
2022-10-02T07:52:39.202Z,17.73
2022-10-02T07:55:26.082Z,17.79
2022-10-02T07:58:16.877Z,17.80
2022-10-02T08:00:53.911Z,17.90
2022-10-02T08:03:27.217Z,17.83
2022-10-02T08:05:55.487Z,17.87
2022-10-02T08:08:28.767Z,17.88
2022-10-02T08:11:09.446Z,17.89
2022-10-02T08:13:42.451Z,17.94
2022-10-02T08:16:09.621Z,17.98
2022-10-02T08:19:08.773Z,18.09
2022-10-02T08:21:43.137Z,18.21
2022-10-02T08:24:40.082Z,18.20
2022-10-02T08:27:14.791Z,18.34
2022-10-02T08:29:57.362Z,18.41
2022-10-02T08:32:32.465Z,18.57
2022-10-02T08:35:01.062Z,18.84
2022-10-02T08:37:46.392Z,18.95
2022-10-02T08:40:31.630Z,18.99
2022-10-02T08:43:19.482Z,19.05
2022-10-02T08:46:31.565Z,19.12
2022-10-02T08:49:13.177Z,19.06
2022-10-02T08:51:43.561Z,18.87
2022-10-02T08:54:31.880Z,18.88
2022-10-02T08:57:07.386Z,18.84
2022-10-02T09:00:06.976Z,18.87
2022-10-02T09:02:51.178Z,18.84
2022-10-02T09:05:20.687Z,18.84
2022-10-02T09:07:47.159Z,18.87
2022-10-02T09:10:51.511Z,18.89
2022-10-02T09:13:49.204Z,18.94
2022-10-02T09:16:20.636Z,18.98
2022-10-02T09:19:05.354Z,18.98
2022-10-02T09:21:51.154Z,19.02
2022-10-02T09:24:25.817Z,19.09
2022-10-02T09:27:07.367Z,19.10
2022-10-02T09:29:48.163Z,19.13
2022-10-02T09:32:35.625Z,19.20
2022-10-02T09:35:26.891Z,19.19
2022-10-02T09:38:33.689Z,19.22
2022-10-02T09:41:27.816Z,19.22
2022-10-02T09:44:43.646Z,19.28
2022-10-02T09:47:41.691Z,19.29
2022-10-02T09:50:42.381Z,19.31
2022-10-02T09:53:46.622Z,19.32
2022-10-02T09:57:04.387Z,19.40
2022-10-02T09:59:49.099Z,19.39
2022-10-02T10:02:28.218Z,19.47
2022-10-02T10:05:23.634Z,19.48
2022-10-02T10:08:08.209Z,19.54
2022-10-02T10:11:10.231Z,19.57
2022-10-02T10:13:55.937Z,19.60
2022-10-02T10:16:34.752Z,19.65
2022-10-02T10:19:29.813Z,19.69
2022-10-02T10:22:02.380Z,19.71
2022-10-02T10:24:34.936Z,19.72
2022-10-02T10:27:14.601Z,19.74
2022-10-02T10:29:49.966Z,19.77
2022-10-02T10:32:34.708Z,19.78
2022-10-02T10:35:25.814Z,19.80
2022-10-02T10:38:32.835Z,19.89
2022-10-02T10:41:05.817Z,19.90
2022-10-02T10:43:44.059Z,19.91
2022-10-02T10:46:29.019Z,20.00
2022-10-02T10:49:10.727Z,20.01
2022-10-02T10:51:43.216Z,20.03
2022-10-02T10:54:40.580Z,20.04
2022-10-02T10:57:41.095Z,20.07
2022-10-02T11:00:41.711Z,20.09
2022-10-02T11:03:37.812Z,20.10
2022-10-02T11:06:26.344Z,20.21
2022-10-02T11:09:28.190Z,20.30
2022-10-02T11:11:57.636Z,20.35
2022-10-02T11:14:47.292Z,20.41
2022-10-02T11:17:17.132Z,20.48
2022-10-02T11:19:51.070Z,20.59
2022-10-02T11:22:38.308Z,20.66
2022-10-02T11:25:14.080Z,20.77
2022-10-02T11:27:57.532Z,20.82
2022-10-02T11:30:40.802Z,20.85
2022-10-02T11:33:20.428Z,20.96
2022-10-02T11:36:00.963Z,21.06
2022-10-02T11:38:38.459Z,21.13
2022-10-02T11:41:29.578Z,21.21
2022-10-02T11:44:34.229Z,21.18
2022-10-02T11:47:07.384Z,21.31
2022-10-02T11:50:01.964Z,21.38
2022-10-02T11:52:50.322Z,21.46
2022-10-02T11:55:46.134Z,21.56
2022-10-02T11:58:33.959Z,21.66
2022-10-02T12:01:34.975Z,21.76
2022-10-02T12:04:12.073Z,21.88
2022-10-02T12:06:50.379Z,21.97
2022-10-02T12:09:26.510Z,22.14
2022-10-02T12:12:12.592Z,22.19
2022-10-02T12:14:50.959Z,22.28
2022-10-02T12:17:26.433Z,22.42
2022-10-02T12:20:11.605Z,22.54
2022-10-02T12:23:12.319Z,22.69
2022-10-02T12:26:19.542Z,22.95
2022-10-02T12:28:56.810Z,23.17
2022-10-02T12:31:32.426Z,23.30
2022-10-02T12:34:23.279Z,23.52
2022-10-02T12:37:02.301Z,23.71
2022-10-02T12:39:54.704Z,23.88
2022-10-02T12:42:40.995Z,23.98
2022-10-02T12:45:43.912Z,24.24
2022-10-02T12:48:29.395Z,24.41
2022-10-02T12:51:29.575Z,24.50
2022-10-02T12:54:07.627Z,24.69
2022-10-02T12:57:38.077Z,24.90
2022-10-02T13:00:14.993Z,25.15
2022-10-02T13:03:01.214Z,25.36
2022-10-02T13:05:37.910Z,25.50
2022-10-02T13:08:32.495Z,25.73
2022-10-02T13:11:39.255Z,25.78
2022-10-02T13:14:16.530Z,25.85
2022-10-02T13:16:49.022Z,26.02
2022-10-02T13:19:36.010Z,26.21
2022-10-02T13:22:06.823Z,26.43
2022-10-02T13:24:46.043Z,26.50
2022-10-02T13:27:22.276Z,26.44
2022-10-02T13:30:17.017Z,26.47
2022-10-02T13:32:58.275Z,26.58
2022-10-02T13:35:52.660Z,26.85
2022-10-02T13:38:37.984Z,26.49
2022-10-02T13:41:22.792Z,26.46
2022-10-02T13:44:33.853Z,26.58
2022-10-02T13:47:12.050Z,26.90
2022-10-02T13:49:51.961Z,27.34
2022-10-02T13:52:24.556Z,30.18
2022-10-02T13:55:04.696Z,31.40
2022-10-02T13:58:10.297Z,30.15
2022-10-02T14:00:37.163Z,31.50
2022-10-02T14:03:41.250Z,33.84
2022-10-02T14:06:24.960Z,35.75
2022-10-02T14:09:22.843Z,36.59
2022-10-02T14:12:08.851Z,37.68
2022-10-02T14:14:42.086Z,38.78
2022-10-02T14:17:31.624Z,38.28
2022-10-02T14:20:16.768Z,38.52
2022-10-02T14:23:04.474Z,39.19
2022-10-02T14:25:37.074Z,40.79
2022-10-02T14:28:40.649Z,41.76
2022-10-02T14:31:07.447Z,41.94
2022-10-02T14:33:55.717Z,42.26
2022-10-02T14:36:25.935Z,42.18
2022-10-02T14:39:01.808Z,42.12
2022-10-02T14:41:55.877Z,42.27
2022-10-02T14:44:28.499Z,42.46
2022-10-02T14:47:04.588Z,42.41
2022-10-02T14:49:53.150Z,42.36
2022-10-02T14:52:22.598Z,42.31
2022-10-02T14:55:13.452Z,42.27
2022-10-02T14:58:03.888Z,42.04
2022-10-02T15:01:01.705Z,42.32
2022-10-02T15:03:39.938Z,42.10
2022-10-02T15:06:12.451Z,41.90
2022-10-02T15:08:43.249Z,42.10
2022-10-02T15:11:22.727Z,41.75
2022-10-02T15:13:53.307Z,41.59
2022-10-02T15:17:03.637Z,41.86
2022-10-02T15:19:36.590Z,41.94
2022-10-02T15:22:19.773Z,41.85
2022-10-02T15:24:55.513Z,41.58
2022-10-02T15:27:23.479Z,41.79
2022-10-02T15:30:12.856Z,41.68
2022-10-02T15:33:13.178Z,41.65
2022-10-02T15:36:06.898Z,41.82
2022-10-02T15:38:55.489Z,41.69
2022-10-02T15:41:42.700Z,41.60
2022-10-02T15:44:33.719Z,41.48
2022-10-02T15:47:19.467Z,41.52
2022-10-02T15:50:21.884Z,41.10
2022-10-02T15:53:30.911Z,40.87
2022-10-02T15:56:25.389Z,40.70
2022-10-02T15:59:29.499Z,40.41
2022-10-02T16:02:42.500Z,40.18
2022-10-02T16:05:34.409Z,40.09
2022-10-02T16:08:32.298Z,39.69
2022-10-02T16:11:01.708Z,39.34
2022-10-02T16:14:00.056Z,39.45
2022-10-02T16:16:42.213Z,39.07
2022-10-02T16:19:33.003Z,39.07
2022-10-02T16:22:17.961Z,38.72
2022-10-02T16:25:03.516Z,38.04
2022-10-02T16:27:51.855Z,37.61
2022-10-02T16:30:21.439Z,37.41
2022-10-02T16:33:23.263Z,36.35
2022-10-02T16:36:29.873Z,34.30
2022-10-02T16:39:23.203Z,31.72
2022-10-02T16:42:11.642Z,29.41
2022-10-02T16:45:15.656Z,29.12
2022-10-02T16:47:49.376Z,28.42
2022-10-02T16:50:26.029Z,27.86
2022-10-02T16:53:10.832Z,27.66
2022-10-02T16:55:41.781Z,27.58
2022-10-02T16:58:37.599Z,27.35
2022-10-02T17:01:18.489Z,27.30
2022-10-02T17:04:05.103Z,27.03
2022-10-02T17:06:38.773Z,26.92
2022-10-02T17:09:12.116Z,26.87
2022-10-02T17:11:48.835Z,26.88
2022-10-02T17:14:24.374Z,27.13
2022-10-02T17:16:53.791Z,27.06
2022-10-02T17:19:45.656Z,27.07
2022-10-02T17:22:33.233Z,27.04
2022-10-02T17:25:14.954Z,27.04
2022-10-02T17:27:55.422Z,26.87
2022-10-02T17:30:27.468Z,26.79
2022-10-02T17:33:03.191Z,25.66
2022-10-02T17:35:39.220Z,25.63
2022-10-02T17:38:47.439Z,25.98
2022-10-02T17:41:36.229Z,25.99
2022-10-02T17:44:11.710Z,25.95
2022-10-02T17:46:54.138Z,25.86
2022-10-02T17:49:32.810Z,25.95
2022-10-02T17:52:32.125Z,25.92
2022-10-02T17:55:34.310Z,25.79
2022-10-02T17:58:19.443Z,25.64
2022-10-02T18:01:16.267Z,25.61
2022-10-02T18:04:21.916Z,25.55
2022-10-02T18:06:51.373Z,25.55
2022-10-02T18:09:17.830Z,25.53
2022-10-02T18:12:02.826Z,25.58
2022-10-02T18:14:53.098Z,25.56
2022-10-02T18:17:32.883Z,25.50
2022-10-02T18:20:23.751Z,25.42
2022-10-02T18:23:15.330Z,25.40
2022-10-02T18:25:50.657Z,25.36
2022-10-02T18:28:26.320Z,25.48
2022-10-02T18:30:58.897Z,25.40
2022-10-02T18:33:46.866Z,25.27
2022-10-02T18:36:28.651Z,25.22
2022-10-02T18:39:00.998Z,25.04
2022-10-02T18:41:52.735Z,24.98
2022-10-02T18:44:41.917Z,24.97
2022-10-02T18:47:28.121Z,24.91
2022-10-02T18:50:00.840Z,24.76
2022-10-02T18:53:04.615Z,24.63
2022-10-02T18:55:44.171Z,24.52
2022-10-02T18:58:24.668Z,24.56
2022-10-02T19:01:00.620Z,24.53
2022-10-02T19:03:52.030Z,24.27
2022-10-02T19:06:27.798Z,24.33
2022-10-02T19:09:04.096Z,24.27
2022-10-02T19:11:33.401Z,24.28
2022-10-02T19:14:12.064Z,24.29
2022-10-02T19:16:39.311Z,24.18
2022-10-02T19:19:09.915Z,24.06
2022-10-02T19:21:37.504Z,23.98
2022-10-02T19:24:14.238Z,23.96
2022-10-02T19:26:44.053Z,23.91
2022-10-02T19:29:32.519Z,23.90
2022-10-02T19:32:01.078Z,23.84
2022-10-02T19:34:30.489Z,23.81
2022-10-02T19:37:04.742Z,23.72
2022-10-02T19:39:37.221Z,23.70
2022-10-02T19:42:13.178Z,23.66
2022-10-02T19:44:42.762Z,23.50
2022-10-02T19:48:02.002Z,23.60
2022-10-02T19:50:37.886Z,23.49
2022-10-02T19:53:07.856Z,23.46
2022-10-02T19:55:40.909Z,23.42
2022-10-02T19:58:41.876Z,23.39
2022-10-02T20:01:18.448Z,23.43
2022-10-02T20:03:47.542Z,23.34
2022-10-02T20:06:19.480Z,23.26
2022-10-02T20:08:52.037Z,23.25
2022-10-02T20:11:22.897Z,23.13
2022-10-02T20:14:04.542Z,23.09
2022-10-02T20:16:50.678Z,23.00
2022-10-02T20:19:24.973Z,22.94
2022-10-02T20:21:54.591Z,22.92
2022-10-02T20:24:55.951Z,22.87
2022-10-02T20:27:41.909Z,22.96
2022-10-02T20:30:21.424Z,22.94
2022-10-02T20:33:26.805Z,22.95
2022-10-02T20:36:01.977Z,22.71
2022-10-02T20:38:33.378Z,22.70
2022-10-02T20:41:03.775Z,22.58
2022-10-02T20:43:41.845Z,22.51
2022-10-02T20:46:29.677Z,22.55
2022-10-02T20:49:14.917Z,22.63
2022-10-02T20:52:04.923Z,22.55
2022-10-02T20:55:01.803Z,22.50
2022-10-02T20:58:01.184Z,22.29
2022-10-02T21:00:36.615Z,22.40
2022-10-02T21:03:39.671Z,22.32
2022-10-02T21:06:22.737Z,22.29
2022-10-02T21:08:52.492Z,22.23
2022-10-02T21:11:42.725Z,22.13
2022-10-02T21:14:28.163Z,22.14
2022-10-02T21:16:54.746Z,22.14
2022-10-02T21:19:31.664Z,22.16
2022-10-02T21:22:26.041Z,22.03
2022-10-02T21:25:24.809Z,22.01
2022-10-02T21:28:09.762Z,21.95
2022-10-02T21:30:47.142Z,21.95
2022-10-02T21:33:30.576Z,21.92
2022-10-02T21:36:18.287Z,21.87
2022-10-02T21:39:03.349Z,21.75
2022-10-02T21:41:44.118Z,21.68
2022-10-02T21:44:54.818Z,21.58
2022-10-02T21:47:47.670Z,21.65
2022-10-02T21:50:38.715Z,21.55
2022-10-02T21:53:13.113Z,21.54
2022-10-02T21:55:58.419Z,21.54
2022-10-02T21:58:27.922Z,21.54
2022-10-02T22:00:58.433Z,21.45
2022-10-02T22:03:50.434Z,21.52
2022-10-02T22:06:43.425Z,21.30
2022-10-02T22:09:16.937Z,21.46
2022-10-02T22:12:01.815Z,21.26
2022-10-02T22:14:35.191Z,21.08
2022-10-02T22:17:10.937Z,21.07
2022-10-02T22:19:50.888Z,20.89
2022-10-02T22:22:20.369Z,20.97
2022-10-02T22:25:14.707Z,20.87
2022-10-02T22:27:53.497Z,20.90
2022-10-02T22:30:24.316Z,20.94
2022-10-02T22:33:11.718Z,20.88
2022-10-02T22:35:53.549Z,20.77
2022-10-02T22:38:49.289Z,20.80
2022-10-02T22:41:16.149Z,20.75
2022-10-02T22:43:49.241Z,20.66
2022-10-02T22:46:41.191Z,20.62
2022-10-02T22:49:32.729Z,20.52
2022-10-02T22:52:11.412Z,20.54
2022-10-02T22:54:37.865Z,20.47
2022-10-02T22:57:04.288Z,20.50
2022-10-02T22:59:45.912Z,20.50
2022-10-02T23:02:23.884Z,20.41
2022-10-02T23:04:59.758Z,20.40
2022-10-02T23:07:30.433Z,20.39
2022-10-02T23:10:03.430Z,20.37
2022-10-02T23:12:38.694Z,20.34
2022-10-02T23:15:29.668Z,20.29
2022-10-02T23:18:03.602Z,20.28
2022-10-02T23:20:38.079Z,20.30
2022-10-02T23:23:14.453Z,20.24
2022-10-02T23:26:06.727Z,20.13
2022-10-02T23:28:52.206Z,20.02
2022-10-02T23:31:31.180Z,20.03
2022-10-02T23:34:16.458Z,20.02
2022-10-02T23:36:55.869Z,19.96
2022-10-02T23:39:52.310Z,19.88
2022-10-02T23:42:26.485Z,19.88
2022-10-02T23:45:21.569Z,19.83
2022-10-02T23:47:59.510Z,19.87
2022-10-02T23:50:35.518Z,19.79
2022-10-02T23:53:23.775Z,19.75
2022-10-02T23:56:03.904Z,19.76
2022-10-02T23:58:46.640Z,19.78
